sensor_id;sensor_type;location;lat;lon;timestamp;pressure;altitude;pressure_sealevel;temperature;humidity
21182;BME280;10749;46.296;7.524;2023-05-01T00:01:41;94847.25;;;14.56;63.78
21182;BME280;10749;46.296;7.524;2023-05-01T00:04:06;94851.94;;;14.54;63.77
21182;BME280;10749;46.296;7.524;2023-05-01T00:06:31;94846.19;;;14.51;63.77
21182;BME280;10749;46.296;7.524;2023-05-01T00:08:57;94847.03;;;14.51;63.76
21182;BME280;10749;46.296;7.524;2023-05-01T00:11:22;94842.94;;;14.49;63.94
21182;BME280;10749;46.296;7.524;2023-05-01T00:13:48;94842.72;;;14.50;63.63
21182;BME280;10749;46.296;7.524;2023-05-01T00:16:14;94848.47;;;14.47;63.92
21182;BME280;10749;46.296;7.524;2023-05-01T00:18:40;94845.97;;;14.46;63.59
21182;BME280;10749;46.296;7.524;2023-05-01T00:21:06;94849.88;;;14.43;64.09
21182;BME280;10749;46.296;7.524;2023-05-01T00:23:31;94847.22;;;14.43;64.00
21182;BME280;10749;46.296;7.524;2023-05-01T00:25:56;94841.50;;;14.40;64.17
21182;BME280;10749;46.296;7.524;2023-05-01T00:28:22;94841.91;;;14.37;64.22
21182;BME280;10749;46.296;7.524;2023-05-01T00:30:47;94846.41;;;14.36;63.88
21182;BME280;10749;46.296;7.524;2023-05-01T00:33:12;94842.09;;;14.35;64.09
21182;BME280;10749;46.296;7.524;2023-05-01T00:35:38;94845.13;;;14.32;63.93
21182;BME280;10749;46.296;7.524;2023-05-01T00:38:03;94845.13;;;14.32;64.03
21182;BME280;10749;46.296;7.524;2023-05-01T00:40:28;94848.81;;;14.31;64.03
21182;BME280;10749;46.296;7.524;2023-05-01T00:42:54;94843.06;;;14.27;64.09
21182;BME280;10749;46.296;7.524;2023-05-01T00:45:20;94839.78;;;14.25;64.38
21182;BME280;10749;46.296;7.524;2023-05-01T00:47:45;94837.34;;;14.24;64.05
21182;BME280;10749;46.296;7.524;2023-05-01T00:50:11;94839.78;;;14.25;64.02
21182;BME280;10749;46.296;7.524;2023-05-01T00:52:37;94840.41;;;14.27;63.88
21182;BME280;10749;46.296;7.524;2023-05-01T00:55:04;94841.84;;;14.23;64.08
21182;BME280;10749;46.296;7.524;2023-05-01T00:57:30;94841.03;;;14.23;64.37
21182;BME280;10749;46.296;7.524;2023-05-01T00:59:56;94838.34;;;14.23;64.17
21182;BME280;10749;46.296;7.524;2023-05-01T01:02:22;94836.91;;;14.20;64.27
21182;BME280;10749;46.296;7.524;2023-05-01T01:04:47;94839.78;;;14.19;64.21
21182;BME280;10749;46.296;7.524;2023-05-01T01:07:36;94838.31;;;14.16;64.40
21182;BME280;10749;46.296;7.524;2023-05-01T01:13:07;94834.03;;;14.15;64.10
21182;BME280;10749;46.296;7.524;2023-05-01T01:18:29;94832.00;;;14.11;64.45
21182;BME280;10749;46.296;7.524;2023-05-01T01:32:16;94826.03;;;14.09;64.43
21182;BME280;10749;46.296;7.524;2023-05-01T01:34:50;94827.06;;;14.08;64.52
21182;BME280;10749;46.296;7.524;2023-05-01T01:37:31;94834.00;;;14.09;64.51
21182;BME280;10749;46.296;7.524;2023-05-01T01:40:04;94834.84;;;14.03;64.79
21182;BME280;10749;46.296;7.524;2023-05-01T01:42:36;94835.03;;;14.01;64.73
21182;BME280;10749;46.296;7.524;2023-05-01T01:45:06;94838.50;;;14.02;64.46
21182;BME280;10749;46.296;7.524;2023-05-01T01:47:35;94833.19;;;14.02;64.01
21182;BME280;10749;46.296;7.524;2023-05-01T01:50:06;94834.78;;;13.96;63.81
21182;BME280;10749;46.296;7.524;2023-05-01T01:52:34;94838.28;;;13.90;63.48
21182;BME280;10749;46.296;7.524;2023-05-01T01:55:04;94835.56;;;13.83;63.42
21182;BME280;10749;46.296;7.524;2023-05-01T01:57:31;94830.66;;;13.74;63.25
21182;BME280;10749;46.296;7.524;2023-05-01T01:59:57;94835.75;;;13.69;63.32
21182;BME280;10749;46.296;7.524;2023-05-01T02:02:23;94831.41;;;13.61;63.19
21182;BME280;10749;46.296;7.524;2023-05-01T02:04:52;94837.09;;;13.58;63.01
21182;BME280;10749;46.296;7.524;2023-05-01T02:07:21;94826.69;;;13.57;63.64
21182;BME280;10749;46.296;7.524;2023-05-01T02:09:48;94835.91;;;13.61;63.82
21182;BME280;10749;46.296;7.524;2023-05-01T02:12:15;94824.44;;;13.60;63.95
21182;BME280;10749;46.296;7.524;2023-05-01T02:14:43;94823.81;;;13.58;64.09
21182;BME280;10749;46.296;7.524;2023-05-01T02:17:09;94823.63;;;13.60;64.04
21182;BME280;10749;46.296;7.524;2023-05-01T02:19:36;94817.09;;;13.62;64.21
21182;BME280;10749;46.296;7.524;2023-05-01T02:22:04;94826.09;;;13.61;64.30
21182;BME280;10749;46.296;7.524;2023-05-01T02:24:30;94822.81;;;13.59;64.37
21182;BME280;10749;46.296;7.524;2023-05-01T02:26:59;94821.38;;;13.57;64.38
21182;BME280;10749;46.296;7.524;2023-05-01T02:29:27;94817.06;;;13.56;64.42
21182;BME280;10749;46.296;7.524;2023-05-01T02:31:53;94820.56;;;13.56;64.23
21182;BME280;10749;46.296;7.524;2023-05-01T02:34:19;94818.72;;;13.57;64.63
21182;BME280;10749;46.296;7.524;2023-05-01T02:36:44;94816.88;;;13.57;64.63
21182;BME280;10749;46.296;7.524;2023-05-01T02:39:09;94824.44;;;13.60;64.59
21182;BME280;10749;46.296;7.524;2023-05-01T02:41:36;94824.44;;;13.60;64.29
21182;BME280;10749;46.296;7.524;2023-05-01T02:44:04;94828.53;;;13.56;64.73
21182;BME280;10749;46.296;7.524;2023-05-01T02:46:34;94824.03;;;13.57;64.66
21182;BME280;10749;46.296;7.524;2023-05-01T02:49:01;94822.81;;;13.59;64.72
21182;BME280;10749;46.296;7.524;2023-05-01T02:51:28;94822.56;;;13.54;64.69
21182;BME280;10749;46.296;7.524;2023-05-01T02:53:54;94829.31;;;13.50;64.98
21182;BME280;10749;46.296;7.524;2023-05-01T02:56:20;94824.38;;;13.47;64.97
21182;BME280;10749;46.296;7.524;2023-05-01T02:58:46;94823.38;;;13.48;64.91
21182;BME280;10749;46.296;7.524;2023-05-01T03:01:13;94820.72;;;13.48;64.77
21182;BME280;10749;46.296;7.524;2023-05-01T03:03:38;94823.97;;;13.44;64.72
21182;BME280;10749;46.296;7.524;2023-05-01T03:06:03;94815.75;;;13.38;64.73
21182;BME280;10749;46.296;7.524;2023-05-01T03:08:29;94814.94;;;13.38;64.54
21182;BME280;10749;46.296;7.524;2023-05-01T03:10:54;94822.69;;;13.33;64.98
21182;BME280;10749;46.296;7.524;2023-05-01T03:13:19;94814.50;;;13.28;65.04
21182;BME280;10749;46.296;7.524;2023-05-01T03:15:45;94802.22;;;13.27;64.92
21182;BME280;10749;46.296;7.524;2023-05-01T03:18:11;94809.16;;;13.28;64.99
21182;BME280;10749;46.296;7.524;2023-05-01T03:20:36;94810.38;;;13.25;64.94
21182;BME280;10749;46.296;7.524;2023-05-01T03:23:01;94802.63;;;13.24;64.75
21182;BME280;10749;46.296;7.524;2023-05-01T03:25:27;94806.09;;;13.24;64.96
21182;BME280;10749;46.296;7.524;2023-05-01T03:27:52;94806.09;;;13.24;65.16
21182;BME280;10749;46.296;7.524;2023-05-01T03:30:17;94803.44;;;13.24;64.97
21182;BME280;10749;46.296;7.524;2023-05-01T03:32:43;94809.94;;;13.22;64.99
21182;BME280;10749;46.296;7.524;2023-05-01T03:35:08;94798.72;;;13.20;64.82
21182;BME280;10749;46.296;7.524;2023-05-01T03:37:34;94797.69;;;13.21;64.82
21182;BME280;10749;46.296;7.524;2023-05-01T03:40:00;94794.41;;;13.19;64.63
21182;BME280;10749;46.296;7.524;2023-05-01T03:42:25;94797.63;;;13.14;64.78
21182;BME280;10749;46.296;7.524;2023-05-01T03:44:50;94794.38;;;13.12;64.97
21182;BME280;10749;46.296;7.524;2023-05-01T03:47:16;94791.09;;;13.10;64.78
21182;BME280;10749;46.296;7.524;2023-05-01T03:49:42;94799.22;;;13.09;64.77
21182;BME280;10749;46.296;7.524;2023-05-01T03:52:10;94800.00;;;13.03;64.67
21182;BME280;10749;46.296;7.524;2023-05-01T03:54:36;94790.19;;;13.03;64.94
21182;BME280;10749;46.296;7.524;2023-05-01T03:57:02;94800.41;;;13.00;64.83
21182;BME280;10749;46.296;7.524;2023-05-01T03:59:27;94787.94;;;13.00;64.81
21182;BME280;10749;46.296;7.524;2023-05-01T04:01:53;94792.03;;;13.03;64.69
21182;BME280;10749;46.296;7.524;2023-05-01T04:04:18;94797.75;;;13.00;64.95
21182;BME280;10749;46.296;7.524;2023-05-01T04:06:43;94792.19;;;12.94;64.65
21182;BME280;10749;46.296;7.524;2023-05-01T04:09:08;94795.03;;;12.93;64.97
21182;BME280;10749;46.296;7.524;2023-05-01T04:11:34;94791.34;;;12.87;65.01
21182;BME280;10749;46.296;7.524;2023-05-01T04:13:59;94796.66;;;12.87;64.86
21182;BME280;10749;46.296;7.524;2023-05-01T04:16:24;94792.34;;;12.86;64.99
21182;BME280;10749;46.296;7.524;2023-05-01T04:18:50;94789.06;;;12.84;64.85
21182;BME280;10749;46.296;7.524;2023-05-01T04:21:16;94795.41;;;12.83;65.08
21182;BME280;10749;46.296;7.524;2023-05-01T04:23:43;94797.84;;;12.85;65.37
21182;BME280;10749;46.296;7.524;2023-05-01T04:26:08;94800.06;;;12.81;65.13
21182;BME280;10749;46.296;7.524;2023-05-01T04:28:33;94803.97;;;12.85;65.08
21182;BME280;10749;46.296;7.524;2023-05-01T04:30:58;94796.25;;;12.90;65.13
21182;BME280;10749;46.296;7.524;2023-05-01T04:33:24;94804.84;;;12.92;64.97
21182;BME280;10749;46.296;7.524;2023-05-01T04:35:52;94808.72;;;12.90;65.02
21182;BME280;10749;46.296;7.524;2023-05-01T04:38:17;94808.72;;;12.90;64.79
21182;BME280;10749;46.296;7.524;2023-05-01T04:40:42;94811.78;;;12.93;64.96
21182;BME280;10749;46.296;7.524;2023-05-01T04:43:07;94804.84;;;12.92;65.05
21182;BME280;10749;46.296;7.524;2023-05-01T04:45:33;94807.28;;;12.87;65.40
21182;BME280;10749;46.296;7.524;2023-05-01T04:47:58;94809.72;;;12.89;65.13
21182;BME280;10749;46.296;7.524;2023-05-01T04:50:23;94808.28;;;12.86;65.11
21182;BME280;10749;46.296;7.524;2023-05-01T04:52:49;94819.09;;;12.85;65.05
21182;BME280;10749;46.296;7.524;2023-05-01T04:55:14;94819.91;;;12.85;65.38
21182;BME280;10749;46.296;7.524;2023-05-01T04:57:40;94821.56;;;12.86;65.43
21182;BME280;10749;46.296;7.524;2023-05-01T05:00:06;94819.91;;;12.85;65.60
21182;BME280;10749;46.296;7.524;2023-05-01T05:02:32;94819.34;;;12.90;65.24
21182;BME280;10749;46.296;7.524;2023-05-01T05:04:57;94817.50;;;12.90;65.41
21182;BME280;10749;46.296;7.524;2023-05-01T05:07:23;94819.53;;;12.88;65.70
21182;BME280;10749;46.296;7.524;2023-05-01T05:09:48;94825.47;;;12.90;65.75
21182;BME280;10749;46.296;7.524;2023-05-01T05:12:13;94824.66;;;12.90;65.36
21182;BME280;10749;46.296;7.524;2023-05-01T05:14:40;94824.84;;;12.88;65.48
21182;BME280;10749;46.296;7.524;2023-05-01T05:17:05;94829.53;;;12.86;65.36
21182;BME280;10749;46.296;7.524;2023-05-01T05:19:31;94828.53;;;12.87;65.39
21182;BME280;10749;46.296;7.524;2023-05-01T05:21:56;94828.53;;;12.87;65.49
21182;BME280;10749;46.296;7.524;2023-05-01T05:24:21;94835.84;;;12.85;65.66
21182;BME280;10749;46.296;7.524;2023-05-01T05:26:47;94837.50;;;12.86;65.66
21182;BME280;10749;46.296;7.524;2023-05-01T05:29:13;94839.50;;;12.84;65.61
21182;BME280;10749;46.296;7.524;2023-05-01T05:31:38;94843.22;;;12.83;65.62
21182;BME280;10749;46.296;7.524;2023-05-01T05:34:03;94843.22;;;12.83;65.42
21182;BME280;10749;46.296;7.524;2023-05-01T05:36:28;94844.22;;;12.82;65.71
21182;BME280;10749;46.296;7.524;2023-05-01T05:38:54;94846.03;;;12.82;65.62
21182;BME280;10749;46.296;7.524;2023-05-01T05:41:20;94841.34;;;12.84;65.70
21182;BME280;10749;46.296;7.524;2023-05-01T05:43:45;94845.47;;;12.86;65.76
21182;BME280;10749;46.296;7.524;2023-05-01T05:46:11;94847.31;;;12.86;65.89
21182;BME280;10749;46.296;7.524;2023-05-01T05:48:36;94850.38;;;12.89;65.68
21182;BME280;10749;46.296;7.524;2023-05-01T05:51:01;94847.31;;;12.86;65.77
21182;BME280;10749;46.296;7.524;2023-05-01T05:53:27;94850.13;;;12.84;65.77
21182;BME280;10749;46.296;7.524;2023-05-01T05:55:52;94854.44;;;12.85;66.03
21182;BME280;10749;46.296;7.524;2023-05-01T05:58:17;94852.66;;;12.92;65.63
21182;BME280;10749;46.296;7.524;2023-05-01T06:00:46;94853.47;;;12.93;65.67
21182;BME280;10749;46.296;7.524;2023-05-01T06:03:13;94853.09;;;12.96;65.75
21182;BME280;10749;46.296;7.524;2023-05-01T06:05:39;94863.91;;;12.94;65.72
21182;BME280;10749;46.296;7.524;2023-05-01T06:08:04;94857.19;;;12.99;65.55
21182;BME280;10749;46.296;7.524;2023-05-01T06:10:29;94857.19;;;12.99;65.78
21182;BME280;10749;46.296;7.524;2023-05-01T06:12:55;94856.81;;;13.02;65.91
21182;BME280;10749;46.296;7.524;2023-05-01T06:15:20;94854.34;;;13.00;65.93
21182;BME280;10749;46.296;7.524;2023-05-01T06:17:45;94862.94;;;13.02;65.96
21182;BME280;10749;46.296;7.524;2023-05-01T06:20:11;94861.72;;;13.05;65.80
21182;BME280;10749;46.296;7.524;2023-05-01T06:22:37;94866.41;;;13.03;65.72
21182;BME280;10749;46.296;7.524;2023-05-01T06:25:02;94863.75;;;13.03;65.99
21182;BME280;10749;46.296;7.524;2023-05-01T06:27:28;94861.34;;;13.08;65.93
21182;BME280;10749;46.296;7.524;2023-05-01T06:29:53;94868.97;;;13.11;66.10
21182;BME280;10749;46.296;7.524;2023-05-01T06:32:18;94863.88;;;13.16;66.01
21182;BME280;10749;46.296;7.524;2023-05-01T06:34:44;94859.84;;;13.20;65.97
21182;BME280;10749;46.296;7.524;2023-05-01T06:37:09;94866.78;;;13.21;66.14
21182;BME280;10749;46.296;7.524;2023-05-01T06:39:34;94870.25;;;13.21;66.19
21182;BME280;10749;46.296;7.524;2023-05-01T06:42:00;94868.41;;;13.22;66.31
21182;BME280;10749;46.296;7.524;2023-05-01T06:44:27;94868.84;;;13.25;66.04
21182;BME280;10749;46.296;7.524;2023-05-01T06:46:53;94861.09;;;13.24;66.20
21182;BME280;10749;46.296;7.524;2023-05-01T06:49:18;94867.44;;;13.29;66.08
21182;BME280;10749;46.296;7.524;2023-05-01T06:51:43;94866.25;;;13.32;66.04
21182;BME280;10749;46.296;7.524;2023-05-01T06:54:09;94869.72;;;13.32;66.04
21182;BME280;10749;46.296;7.524;2023-05-01T06:56:34;94867.88;;;13.33;65.84
21182;BME280;10749;46.296;7.524;2023-05-01T06:58:59;94867.06;;;13.32;66.25
21182;BME280;10749;46.296;7.524;2023-05-01T07:01:25;94868.91;;;13.38;65.45
21182;BME280;10749;46.296;7.524;2023-05-01T07:03:50;94868.50;;;13.35;65.64
21182;BME280;10749;46.296;7.524;2023-05-01T07:06:15;94866.41;;;13.30;65.91
21182;BME280;10749;46.296;7.524;2023-05-01T07:08:41;94873.38;;;13.31;65.93
21182;BME280;10749;46.296;7.524;2023-05-01T07:11:06;94879.38;;;13.40;65.79
21182;BME280;10749;46.296;7.524;2023-05-01T07:13:31;94875.91;;;13.46;65.32
21182;BME280;10749;46.296;7.524;2023-05-01T07:15:57;94872.22;;;13.40;65.52
21182;BME280;10749;46.296;7.524;2023-05-01T07:18:22;94874.06;;;13.40;65.38
21182;BME280;10749;46.296;7.524;2023-05-01T07:20:47;94872.22;;;13.40;65.35
21182;BME280;10749;46.296;7.524;2023-05-01T07:23:14;94871.41;;;13.47;65.25
21182;BME280;10749;46.296;7.524;2023-05-01T07:25:39;94866.97;;;13.54;65.20
21182;BME280;10749;46.296;7.524;2023-05-01T07:28:09;94869.41;;;13.49;65.42
21182;BME280;10749;46.296;7.524;2023-05-01T07:30:35;94862.44;;;13.54;65.56
21182;BME280;10749;46.296;7.524;2023-05-01T07:33:00;94866.59;;;13.63;65.38
21182;BME280;10749;46.296;7.524;2023-05-01T07:35:26;94864.16;;;13.68;65.47
21182;BME280;10749;46.296;7.524;2023-05-01T07:37:51;94858.28;;;13.79;64.51
21182;BME280;10749;46.296;7.524;2023-05-01T07:40:17;94863.41;;;13.74;64.54
21182;BME280;10749;46.296;7.524;2023-05-01T07:42:42;94861.75;;;13.73;64.85
21182;BME280;10749;46.296;7.524;2023-05-01T07:45:08;94863.75;;;13.71;64.38
21182;BME280;10749;46.296;7.524;2023-05-01T07:47:33;94860.91;;;13.66;64.69
21182;BME280;10749;46.296;7.524;2023-05-01T07:49:59;94858.44;;;13.71;64.90
21182;BME280;10749;46.296;7.524;2023-05-01T07:52:25;94857.25;;;13.80;65.09
21182;BME280;10749;46.296;7.524;2023-05-01T07:54:51;94860.56;;;13.82;65.05
21182;BME280;10749;46.296;7.524;2023-05-01T07:57:17;94859.31;;;13.85;64.90
21182;BME280;10749;46.296;7.524;2023-05-01T07:59:42;94861.75;;;13.80;64.87
21182;BME280;10749;46.296;7.524;2023-05-01T08:02:07;94850.75;;;13.90;64.39
21182;BME280;10749;46.296;7.524;2023-05-01T08:04:33;94854.19;;;13.83;64.42
21182;BME280;10749;46.296;7.524;2023-05-01T08:06:58;94856.47;;;13.86;64.46
21182;BME280;10749;46.296;7.524;2023-05-01T08:09:23;94851.53;;;13.83;64.60
21182;BME280;10749;46.296;7.524;2023-05-01T08:11:49;94855.25;;;13.89;64.73
21182;BME280;10749;46.296;7.524;2023-05-01T08:14:14;94860.56;;;13.89;65.04
21182;BME280;10749;46.296;7.524;2023-05-01T08:16:41;94857.31;;;13.87;64.86
21182;BME280;10749;46.296;7.524;2023-05-01T08:19:07;94855.25;;;13.96;65.02
21182;BME280;10749;46.296;7.524;2023-05-01T08:21:32;94855.66;;;13.93;64.48
21182;BME280;10749;46.296;7.524;2023-05-01T08:23:58;94859.13;;;13.86;64.57
21182;BME280;10749;46.296;7.524;2023-05-01T08:26:23;94851.53;;;13.77;64.55
21182;BME280;10749;46.296;7.524;2023-05-01T08:28:48;94854.38;;;13.75;64.33
21182;BME280;10749;46.296;7.524;2023-05-01T08:31:14;94856.03;;;13.76;64.32
21182;BME280;10749;46.296;7.524;2023-05-01T08:33:39;94855.63;;;13.79;64.06
21182;BME280;10749;46.296;7.524;2023-05-01T08:36:08;94859.69;;;13.75;63.59
21182;BME280;10749;46.296;7.524;2023-05-01T08:38:34;94857.00;;;13.69;63.90
21182;BME280;10749;46.296;7.524;2023-05-01T08:41:00;94858.44;;;13.71;63.79
21182;BME280;10749;46.296;7.524;2023-05-01T08:43:31;94860.50;;;13.69;64.09
21182;BME280;10749;46.296;7.524;2023-05-01T08:46:00;94856.41;;;13.73;63.92
21182;BME280;10749;46.296;7.524;2023-05-01T08:48:26;94861.50;;;13.68;63.77
21182;BME280;10749;46.296;7.524;2023-05-01T08:50:54;94858.38;;;13.58;64.14
21182;BME280;10749;46.296;7.524;2023-05-01T08:53:21;94862.25;;;13.49;63.90
21182;BME280;10749;46.296;7.524;2023-05-01T08:55:48;94863.97;;;13.29;63.90
21182;BME280;10749;46.296;7.524;2023-05-01T08:58:17;94862.94;;;13.30;63.66
21182;BME280;10749;46.296;7.524;2023-05-01T09:00:43;94861.78;;;13.39;63.43
21182;BME280;10749;46.296;7.524;2023-05-01T09:03:10;94870.59;;;13.46;63.54
21182;BME280;10749;46.296;7.524;2023-05-01T09:05:37;94868.56;;;13.48;63.59
21182;BME280;10749;46.296;7.524;2023-05-01T09:08:02;94868.97;;;13.45;63.83
21182;BME280;10749;46.296;7.524;2023-05-01T09:10:28;94874.06;;;13.40;64.08
21182;BME280;10749;46.296;7.524;2023-05-01T09:12:56;94876.72;;;13.47;63.05
21182;BME280;10749;46.296;7.524;2023-05-01T09:15:24;94876.97;;;13.17;63.88
21182;BME280;10749;46.296;7.524;2023-05-01T09:17:50;94880.97;;;13.07;64.26
21182;BME280;10749;46.296;7.524;2023-05-01T09:20:16;94891.47;;;13.15;64.13
21182;BME280;10749;46.296;7.524;2023-05-01T09:22:42;94890.06;;;13.19;64.10
21182;BME280;10749;46.296;7.524;2023-05-01T09:25:08;94894.78;;;13.17;64.35
21182;BME280;10749;46.296;7.524;2023-05-01T09:27:35;94893.78;;;13.24;64.50
21182;BME280;10749;46.296;7.524;2023-05-01T09:30:01;94889.66;;;13.22;64.60
21182;BME280;10749;46.296;7.524;2023-05-01T09:32:27;94902.78;;;13.23;65.04
21182;BME280;10749;46.296;7.524;2023-05-01T09:34:54;94901.94;;;13.23;64.95
21182;BME280;10749;46.296;7.524;2023-05-01T09:42:50;94902.72;;;13.45;65.02
21182;BME280;10749;46.296;7.524;2023-05-01T09:45:17;94902.75;;;13.51;65.06
21182;BME280;10749;46.296;7.524;2023-05-01T09:47:46;94900.94;;;13.58;64.60
21182;BME280;10749;46.296;7.524;2023-05-01T09:50:33;94899.34;;;13.64;64.69
21182;BME280;10749;46.296;7.524;2023-05-01T09:53:03;94903.06;;;13.69;65.16
21182;BME280;10749;46.296;7.524;2023-05-01T09:55:30;94908.13;;;13.64;65.10
21182;BME280;10749;46.296;7.524;2023-05-01T09:57:56;94909.31;;;13.55;65.10
21182;BME280;10749;46.296;7.524;2023-05-01T10:00:23;94909.53;;;13.60;64.78
21182;BME280;10749;46.296;7.524;2023-05-01T10:02:49;94909.94;;;13.57;64.23
21182;BME280;10749;46.296;7.524;2023-05-01T10:05:15;94917.03;;;13.50;64.34
21182;BME280;10749;46.296;7.524;2023-05-01T10:08:01;94916.03;;;13.51;64.38
21182;BME280;10749;46.296;7.524;2023-05-01T10:10:29;94920.94;;;13.54;64.57
21182;BME280;10749;46.296;7.524;2023-05-01T10:12:55;94916.88;;;13.58;64.75
21182;BME280;10749;46.296;7.524;2023-05-01T10:15:21;94920.19;;;13.60;63.81
21182;BME280;10749;46.296;7.524;2023-05-01T10:17:48;94921.34;;;13.51;63.97
21182;BME280;10749;46.296;7.524;2023-05-01T10:20:15;94922.72;;;13.40;64.39
21182;BME280;10749;46.296;7.524;2023-05-01T10:22:40;94925.78;;;13.37;64.37
21182;BME280;10749;46.296;7.524;2023-05-01T10:25:09;94933.16;;;13.42;64.34
21182;BME280;10749;46.296;7.524;2023-05-01T10:27:39;94929.81;;;13.33;64.13
21182;BME280;10749;46.296;7.524;2023-05-01T10:30:05;94926.13;;;13.28;64.34
21182;BME280;10749;46.296;7.524;2023-05-01T10:32:31;94931.84;;;13.25;64.13
21182;BME280;10749;46.296;7.524;2023-05-01T10:35:00;94936.34;;;13.31;63.98
21182;BME280;10749;46.296;7.524;2023-05-01T10:38:03;94933.31;;;13.34;63.81
21182;BME280;10749;46.296;7.524;2023-05-01T10:43:13;94933.09;;;13.29;63.90
21182;BME280;10749;46.296;7.524;2023-05-01T10:45:40;94936.75;;;13.28;64.43
21182;BME280;10749;46.296;7.524;2023-05-01T10:48:05;94939.16;;;13.23;64.55
21182;BME280;10749;46.296;7.524;2023-05-01T10:50:32;94937.50;;;13.22;64.30
21182;BME280;10749;46.296;7.524;2023-05-01T10:55:41;94937.22;;;13.38;64.25
21182;BME280;10749;46.296;7.524;2023-05-01T10:58:07;94940.13;;;13.43;63.76
21182;BME280;10749;46.296;7.524;2023-05-01T11:00:33;94938.03;;;13.38;63.45
21182;BME280;10749;46.296;7.524;2023-05-01T11:08:31;94934.38;;;13.39;63.35
21182;BME280;10749;46.296;7.524;2023-05-01T11:10:56;94941.28;;;13.34;63.08
21182;BME280;10749;46.296;7.524;2023-05-01T11:19:03;94930.19;;;13.24;63.91
21182;BME280;10749;46.296;7.524;2023-05-01T11:21:29;94931.03;;;13.31;63.73
21182;BME280;10749;46.296;7.524;2023-05-01T11:24:02;94927.84;;;13.42;63.86
21182;BME280;10749;46.296;7.524;2023-05-01T11:26:28;94926.25;;;13.48;63.94
21182;BME280;10749;46.296;7.524;2023-05-01T11:28:57;94923.41;;;13.49;64.43
21182;BME280;10749;46.296;7.524;2023-05-01T11:31:24;94923.59;;;13.48;64.52
21182;BME280;10749;46.296;7.524;2023-05-01T11:33:51;94921.56;;;13.50;64.51
21182;BME280;10749;46.296;7.524;2023-05-01T11:36:17;94923.25;;;13.57;64.36
21182;BME280;10749;46.296;7.524;2023-05-01T11:38:52;94919.16;;;13.61;63.88
21182;BME280;10749;46.296;7.524;2023-05-01T11:41:20;94921.00;;;13.61;64.32
21182;BME280;10749;46.296;7.524;2023-05-01T11:43:53;94924.28;;;13.63;64.51
21182;BME280;10749;46.296;7.524;2023-05-01T11:46:29;94926.34;;;13.67;64.59
21182;BME280;10749;46.296;7.524;2023-05-01T11:48:56;94918.00;;;13.70;64.52
21182;BME280;10749;46.296;7.524;2023-05-01T11:51:22;94913.69;;;13.69;64.47
21182;BME280;10749;46.296;7.524;2023-05-01T11:56:25;94916.28;;;13.63;64.51
21182;BME280;10749;46.296;7.524;2023-05-01T11:58:50;94912.44;;;13.65;64.19
21182;BME280;10749;46.296;7.524;2023-05-01T12:01:17;94914.50;;;13.70;63.79
21182;BME280;10749;46.296;7.524;2023-05-01T12:03:43;94912.88;;;13.75;63.28
21182;BME280;10749;46.296;7.524;2023-05-01T12:06:09;94917.78;;;13.72;63.70
21182;BME280;10749;46.296;7.524;2023-05-01T12:08:35;94918.59;;;13.72;63.99
21182;BME280;10749;46.296;7.524;2023-05-01T12:11:01;94911.28;;;13.81;63.76
21182;BME280;10749;46.296;7.524;2023-05-01T12:13:27;94915.19;;;13.78;64.09
21182;BME280;10749;46.296;7.524;2023-05-01T12:15:54;94918.69;;;13.85;64.31
21182;BME280;10749;46.296;7.524;2023-05-01T12:18:20;94917.09;;;13.98;64.17
21182;BME280;10749;46.296;7.524;2023-05-01T12:20:48;94929.81;;;14.09;63.64
21182;BME280;10749;46.296;7.524;2023-05-01T12:23:18;94921.66;;;14.10;64.00
21182;BME280;10749;46.296;7.524;2023-05-01T12:25:44;94925.38;;;14.16;63.07
21182;BME280;10749;46.296;7.524;2023-05-01T12:28:12;94931.47;;;14.10;63.83
21182;BME280;10749;46.296;7.524;2023-05-01T12:30:39;94923.28;;;14.11;63.83
21182;BME280;10749;46.296;7.524;2023-05-01T12:33:13;94931.47;;;14.10;63.80
21182;BME280;10749;46.296;7.524;2023-05-01T12:35:40;94926.97;;;14.17;63.71
21182;BME280;10749;46.296;7.524;2023-05-01T12:38:10;94929.09;;;14.28;63.28
21182;BME280;10749;46.296;7.524;2023-05-01T12:40:37;94929.47;;;14.18;63.75
21182;BME280;10749;46.296;7.524;2023-05-01T12:43:03;94933.97;;;14.18;63.49
21182;BME280;10749;46.296;7.524;2023-05-01T12:45:28;94931.13;;;14.26;63.37
21182;BME280;10749;46.296;7.524;2023-05-01T12:47:53;94927.41;;;14.20;63.06
21182;BME280;10749;46.296;7.524;2023-05-01T12:50:19;94931.94;;;14.20;63.20
21182;BME280;10749;46.296;7.524;2023-05-01T12:52:44;94932.13;;;14.25;62.97
21182;BME280;10749;46.296;7.524;2023-05-01T12:55:10;94927.03;;;14.30;62.77
21182;BME280;10749;46.296;7.524;2023-05-01T12:57:50;94926.19;;;14.23;62.57
21182;BME280;10749;46.296;7.524;2023-05-01T13:00:15;94929.66;;;14.17;62.89
21182;BME280;10749;46.296;7.524;2023-05-01T13:02:41;94932.94;;;14.19;63.08
21182;BME280;10749;46.296;7.524;2023-05-01T13:05:10;94919.22;;;14.22;63.25
21182;BME280;10749;46.296;7.524;2023-05-01T13:07:36;94926.63;;;14.26;63.05
21182;BME280;10749;46.296;7.524;2023-05-01T13:10:02;94927.25;;;14.28;62.91
21182;BME280;10749;46.296;7.524;2023-05-01T13:12:30;94915.97;;;14.20;62.94
21182;BME280;10749;46.296;7.524;2023-05-01T13:14:56;94926.59;;;14.20;62.72
21182;BME280;10749;46.296;7.524;2023-05-01T13:19:53;94922.06;;;14.14;62.61
21182;BME280;10749;46.296;7.524;2023-05-01T13:22:27;94918.00;;;14.18;62.14
21182;BME280;10749;46.296;7.524;2023-05-01T13:24:53;94919.81;;;14.17;62.17
21182;BME280;10749;46.296;7.524;2023-05-01T13:27:20;94918.56;;;14.13;62.40
21182;BME280;10749;46.296;7.524;2023-05-01T13:29:52;94916.50;;;14.09;62.67
21182;BME280;10749;46.296;7.524;2023-05-01T13:32:19;94915.09;;;14.13;62.34
21182;BME280;10749;46.296;7.524;2023-05-01T13:34:44;94916.75;;;14.14;62.12
21182;BME280;10749;46.296;7.524;2023-05-01T13:37:10;94920.00;;;14.09;62.22
21182;BME280;10749;46.296;7.524;2023-05-01T13:39:42;94922.06;;;14.07;62.33
21182;BME280;10749;46.296;7.524;2023-05-01T13:42:10;94918.94;;;13.97;62.37